createdAt,value
2022-08-05T00:04:56.366Z,6.78
2022-08-05T00:09:57.658Z,7.67
2022-08-05T00:15:00.000Z,7.03
2022-08-05T00:20:21.276Z,6.30
2022-08-05T00:25:22.640Z,6.33
2022-08-05T00:30:29.315Z,8.17
2022-08-05T00:35:33.571Z,9.60
2022-08-05T00:40:53.150Z,6.88
2022-08-05T00:45:55.235Z,7.37
2022-08-05T00:50:56.530Z,7.53
2022-08-05T00:55:57.845Z,6.03
2022-08-05T01:00:59.207Z,7.13
2022-08-05T01:06:01.654Z,6.22
2022-08-05T01:11:21.828Z,6.53
2022-08-05T01:16:40.175Z,6.10
2022-08-05T01:22:02.631Z,7.23
2022-08-05T01:27:17.617Z,6.25
2022-08-05T01:32:22.216Z,6.70
2022-08-05T01:37:36.520Z,6.20
2022-08-05T01:42:39.506Z,7.75
2022-08-05T01:47:44.071Z,7.80
2022-08-05T01:52:49.749Z,7.50
2022-08-05T01:58:09.266Z,8.75
2022-08-05T02:03:24.032Z,7.85
2022-08-05T02:08:31.670Z,7.27
2022-08-05T02:13:48.801Z,8.47
2022-08-05T02:19:07.258Z,10.25
2022-08-05T02:24:10.816Z,7.85
2022-08-05T02:29:21.315Z,8.03
2022-08-05T02:34:23.913Z,7.57
2022-08-05T02:39:30.009Z,7.55
2022-08-05T02:44:36.324Z,6.80
2022-08-05T02:49:40.706Z,7.65
2022-08-05T02:54:50.590Z,10.57
2022-08-05T02:59:53.984Z,7.40
2022-08-05T03:04:57.236Z,6.67
2022-08-05T03:09:58.597Z,7.43
2022-08-05T03:15:00.406Z,8.73
2022-08-05T03:20:01.903Z,8.80
2022-08-05T03:25:11.611Z,8.93
2022-08-05T03:30:30.120Z,8.32
2022-08-05T03:35:40.474Z,7.00
2022-08-05T03:40:45.092Z,7.95
2022-08-05T03:45:58.239Z,8.15
2022-08-05T03:52:37.258Z,8.00
2022-08-05T03:56:42.026Z,9.47
2022-08-05T04:01:45.936Z,15.18
2022-08-05T04:06:51.072Z,8.40
2022-08-05T04:11:53.148Z,8.73
2022-08-05T04:16:54.652Z,9.35
2022-08-05T04:22:09.046Z,7.18
2022-08-05T04:27:13.555Z,6.87
2022-08-05T04:32:19.962Z,8.57
2022-08-05T04:38:00.863Z,7.65
2022-08-05T04:42:50.716Z,9.17
2022-08-05T04:47:51.994Z,10.93
2022-08-05T04:52:53.715Z,8.63
2022-08-05T04:57:54.969Z,10.07
2022-08-05T05:03:00.205Z,8.63
2022-08-05T05:08:06.376Z,12.15
2022-08-05T05:13:17.022Z,9.90
2022-08-05T05:18:31.528Z,11.40
2022-08-05T05:24:02.475Z,10.95
2022-08-05T05:28:57.014Z,11.40
2022-08-05T05:34:02.559Z,13.33
2022-08-05T05:39:04.438Z,9.90
2022-08-05T05:44:35.729Z,9.43
2022-08-05T05:49:27.620Z,9.77
2022-08-05T05:54:49.674Z,8.03
2022-08-05T05:59:50.253Z,7.72
2022-08-05T06:04:54.142Z,8.90
2022-08-05T06:10:04.558Z,8.90
2022-08-05T06:15:09.401Z,12.77
2022-08-05T06:20:24.869Z,10.35
2022-08-05T06:26:12.495Z,8.57
2022-08-05T06:30:50.670Z,12.73
2022-08-05T06:36:07.341Z,11.38
2022-08-05T06:41:11.676Z,12.95
2022-08-05T06:46:13.117Z,9.87
2022-08-05T06:51:21.846Z,10.10
2022-08-05T06:56:29.902Z,10.90
2022-08-05T07:01:34.723Z,9.47
2022-08-05T07:06:37.057Z,10.32
2022-08-05T07:11:39.969Z,11.15
2022-08-05T07:17:59.947Z,9.00
2022-08-05T07:22:11.766Z,7.03
2022-08-05T07:27:17.127Z,7.40
2022-08-05T07:32:18.417Z,6.68
2022-08-05T07:37:28.982Z,8.63
2022-08-05T07:42:37.221Z,5.43
2022-08-05T07:47:42.509Z,5.53
2022-08-05T07:52:44.317Z,5.30
2022-08-05T07:57:51.298Z,6.20
2022-08-05T08:03:14.689Z,5.72
2022-08-05T08:08:16.781Z,8.87
2022-08-05T08:13:22.151Z,6.63
2022-08-05T08:18:30.214Z,8.52
2022-08-05T08:24:01.106Z,5.63
2022-08-05T08:28:59.085Z,8.43
2022-08-05T08:34:01.241Z,7.53
2022-08-05T08:39:02.578Z,6.20
2022-08-05T08:45:20.237Z,6.30
2022-08-05T08:50:14.636Z,7.93
2022-08-05T08:54:49.474Z,5.65
2022-08-05T08:59:50.784Z,6.50
2022-08-05T09:05:16.416Z,7.30
2022-08-05T09:10:15.324Z,6.57
2022-08-05T09:15:20.358Z,9.18
2022-08-05T09:20:36.675Z,7.13
2022-08-05T09:25:59.881Z,5.50
2022-08-05T09:31:22.277Z,5.43
2022-08-05T09:36:38.471Z,5.67
2022-08-05T09:42:00.947Z,6.40
2022-08-05T09:47:13.970Z,6.60
2022-08-05T09:52:18.269Z,7.37
2022-08-05T09:57:35.376Z,6.10
2022-08-05T10:02:45.542Z,5.07
2022-08-05T10:08:36.877Z,5.38
2022-08-05T10:13:47.199Z,5.13
2022-08-05T10:18:49.854Z,5.45
2022-08-05T10:23:58.974Z,5.68
2022-08-05T10:29:02.449Z,6.00
2022-08-05T10:34:03.893Z,5.80
2022-08-05T10:39:15.113Z,5.93
2022-08-05T10:44:26.761Z,6.30
2022-08-05T10:49:32.887Z,6.93
2022-08-05T10:54:56.025Z,7.07
2022-08-05T11:00:16.095Z,5.43
2022-08-05T11:05:20.762Z,6.47
2022-08-05T11:10:27.649Z,8.57
2022-08-05T11:16:00.011Z,5.00
2022-08-05T11:20:56.260Z,7.03
2022-08-05T11:26:04.214Z,6.00
2022-08-05T11:31:10.113Z,6.35
2022-08-05T11:36:12.037Z,6.00
2022-08-05T11:41:54.420Z,5.23
2022-08-05T11:46:58.385Z,5.95
2022-08-05T11:52:08.739Z,7.93
2022-08-05T11:58:08.660Z,6.40
2022-08-05T12:02:36.162Z,9.43
2022-08-05T12:08:03.636Z,6.05
2022-08-05T12:13:03.941Z,6.60
2022-08-05T12:18:17.820Z,6.15
2022-08-05T12:23:22.065Z,6.32
2022-08-05T12:28:36.918Z,6.20
2022-08-05T12:33:38.962Z,6.40
2022-08-05T12:38:41.343Z,7.45
2022-08-05T12:43:50.400Z,7.93
2022-08-05T12:49:13.449Z,8.00
2022-08-05T12:54:23.681Z,6.70
2022-08-05T13:00:08.732Z,7.40
2022-08-05T13:04:54.727Z,6.87
2022-08-05T13:09:58.857Z,5.07
2022-08-05T13:15:06.241Z,5.75
2022-08-05T13:20:20.378Z,5.60
2022-08-05T13:25:52.253Z,8.13
2022-08-05T13:30:45.811Z,6.30
2022-08-05T13:35:51.828Z,7.00
2022-08-05T13:40:53.481Z,5.93
2022-08-05T13:45:55.091Z,6.20
2022-08-05T13:51:04.531Z,7.18
2022-08-05T13:56:18.154Z,6.00
2022-08-05T14:01:25.895Z,8.68
2022-08-05T14:06:37.842Z,7.57
2022-08-05T14:12:00.442Z,7.60
2022-08-05T14:17:02.782Z,7.00
2022-08-05T14:22:11.456Z,6.90
2022-08-05T14:27:18.133Z,7.78
2022-08-05T14:32:27.708Z,8.53
2022-08-05T14:37:45.589Z,8.13
2022-08-05T14:42:50.437Z,7.40
2022-08-05T14:48:04.205Z,7.83
2022-08-05T14:53:07.426Z,7.43
2022-08-05T14:58:13.693Z,8.98
2022-08-05T15:03:15.255Z,6.47
2022-08-05T15:08:58.329Z,8.23
2022-08-05T15:13:46.344Z,6.78
2022-08-05T15:18:51.669Z,7.28
2022-08-05T15:23:53.940Z,7.63
2022-08-05T15:28:55.211Z,6.03
2022-08-05T15:34:19.045Z,6.75
2022-08-05T15:40:58.967Z,7.13
2022-08-05T15:44:41.948Z,5.93
2022-08-05T15:49:55.137Z,8.30
2022-08-05T15:55:00.243Z,7.80
2022-08-05T16:00:06.757Z,6.67
2022-08-05T16:05:09.681Z,7.60
2022-08-05T16:10:12.584Z,6.45
2022-08-05T16:15:18.476Z,5.60
2022-08-05T16:20:20.231Z,6.15
2022-08-05T16:25:21.512Z,6.00
2022-08-05T16:30:34.113Z,7.40
2022-08-05T16:35:42.198Z,6.10
2022-08-05T16:40:52.079Z,8.52
2022-08-05T16:46:06.371Z,11.10
2022-08-05T16:51:11.179Z,10.57
2022-08-05T16:56:12.501Z,9.75
2022-08-05T17:01:13.859Z,9.35
2022-08-05T17:06:16.343Z,11.70
2022-08-05T17:11:18.026Z,12.65
2022-08-05T17:16:32.625Z,10.73
2022-08-05T17:21:36.418Z,10.37
2022-08-05T17:26:39.013Z,9.13
2022-08-05T17:31:58.640Z,12.43
2022-08-05T17:37:00.623Z,9.87
2022-08-05T17:42:20.212Z,11.20
2022-08-05T17:47:24.103Z,10.13
2022-08-05T17:52:25.799Z,11.80
2022-08-05T17:57:28.009Z,11.63
2022-08-05T18:02:29.445Z,10.40
2022-08-05T18:07:40.865Z,10.32
2022-08-05T18:12:42.356Z,11.00
2022-08-05T18:18:01.655Z,13.48
2022-08-05T18:23:09.524Z,12.85
2022-08-05T18:28:16.400Z,14.40
2022-08-05T18:33:22.977Z,14.17
2022-08-05T18:38:25.920Z,16.15
2022-08-05T18:43:27.589Z,15.25
2022-08-05T18:48:33.444Z,14.83
2022-08-05T18:53:34.826Z,14.48
2022-08-05T18:58:47.134Z,13.82
2022-08-05T19:03:55.327Z,14.67
2022-08-05T19:08:57.982Z,12.93
2022-08-05T19:14:01.806Z,11.93
2022-08-05T19:19:12.835Z,10.27
2022-08-05T19:24:14.287Z,10.27
2022-08-05T19:29:15.591Z,12.57
2022-08-05T19:34:20.325Z,11.02
2022-08-05T19:39:23.178Z,12.00
2022-08-05T19:44:24.601Z,12.23
2022-08-05T19:49:30.442Z,10.30
2022-08-05T19:54:32.686Z,8.50
2022-08-05T19:59:55.446Z,9.63
2022-08-05T20:04:58.923Z,8.02
2022-08-05T20:10:00.830Z,7.73
2022-08-05T20:15:02.183Z,7.60
2022-08-05T20:20:09.198Z,8.45
2022-08-05T20:25:10.885Z,7.70
2022-08-05T20:30:13.030Z,7.23
2022-08-05T20:35:14.553Z,7.63
2022-08-05T20:40:16.910Z,9.90
2022-08-05T20:45:19.362Z,7.40
2022-08-05T20:50:22.404Z,6.60
2022-08-05T20:55:56.130Z,6.93
2022-08-05T21:00:52.393Z,5.13
2022-08-05T21:05:56.157Z,5.37
2022-08-05T21:11:00.472Z,4.38
2022-08-05T21:16:01.904Z,7.13
2022-08-05T21:21:05.077Z,4.50
2022-08-05T21:26:12.341Z,5.55
2022-08-05T21:31:13.968Z,5.68
2022-08-05T21:36:27.665Z,5.03
2022-08-05T21:41:34.314Z,4.53
2022-08-05T21:46:37.105Z,5.10
2022-08-05T21:52:21.349Z,5.30
2022-08-05T22:02:21.469Z,4.55
2022-08-05T22:07:39.416Z,4.85
2022-08-05T22:12:44.928Z,5.63
2022-08-05T22:17:56.577Z,5.18
2022-08-05T22:23:21.593Z,5.47
2022-08-05T22:28:25.432Z,5.57
2022-08-05T22:33:56.571Z,4.53
2022-08-05T22:38:48.956Z,4.78
2022-08-05T22:43:50.339Z,5.37
2022-08-05T22:48:52.653Z,4.87
2022-08-05T22:53:55.064Z,4.32
2022-08-05T22:58:56.610Z,5.18
2022-08-05T23:03:59.666Z,6.90
2022-08-05T23:09:27.194Z,5.07
2022-08-05T23:14:26.662Z,6.10
2022-08-05T23:19:38.599Z,5.63
2022-08-05T23:24:51.013Z,4.93
2022-08-05T23:29:53.881Z,4.30
2022-08-05T23:34:56.479Z,5.33
2022-08-05T23:39:57.871Z,8.70
2022-08-05T23:44:59.250Z,5.63
2022-08-05T23:50:01.031Z,5.75
2022-08-05T23:55:05.508Z,7.00
